Airfield :







YOU CAN JOIN US ON...

 
LOGIN :

Register | Disclaimer

   EN    FR    IT 

 









Legend :    VFR   Marginal VFR   IFR   Intensive IFR   Very Intensive IFR
Visi :
Ceiling :
>= 8 km
>= 3000ft
5 to 8 km
1000 to 3000 ft
1500m to 5 km
500 to 1000 ft
800 to 1500m
200 to 500 ft
< 800m
< 200 ft
Symbols :   Thunderstorms  Fog  Heavy snow  Heavy precipitations  Wind > 20 kt







- Airport Elevation : 92 ft
- IATA code : YZX


CYZX - CFB Greenwood

CURRENT METAR :
  • 200700Z 26004KT 8SM SCT009 OVC016 22/21 A2990 RMK SF3SC5 SLP125

EXPIRED METARs :
  • 200632Z 22004KT 8SM SCT008 OVC016 22/21 A2990 RMK SF3SC5 OCNL LTG SE MOVG E SLP125
  • 200611Z CCA 22004KT 6SM -TSRA BR SCT007 OVC011CB 22/22 A2990 RMK SF3CB5 PRESRR OCNL LTG S QUAD MOVG E SLP125
  • 200600Z 25003KT 4SM -TSRA BR OVC012CB 23/20 A2988 RMK CB8 OCNL LTG S QUAD SLP119
  • 200551Z 25004KT 4SM TSRA BR OVC013CB 23/20 A2988 RMK CB8 LTG SW MOVG NE SLP119
  • 200533Z 21002KT 10SM -TSRA BKN013CB OVC016 23/20 A2988 RMK CB6SC2 LTG SW MOVG NE SLP117
  • 200527Z 21003KT 10SM TS BKN013CB OVC016 23/20 A2988 RMK CB5SC3 LTG 8NM SW MOVG NE SLP119
  • 200511Z 22003KT 15SM OVC013 23/20 A2988 RMK SC8 LTG DTCTD14NM SW MOVG NE SLP118
  • 200400Z 21004KT 15SM BKN016 OVC250 23/21 A2990 RMK SC6CI2 SLP124

TAF TAF CYZX
Valid from the 20 at 06:00 until the 21 at 06:00 UTC


200530Z 2006/2106 22010KT P6SM -SHRA OVC020
TEMPO 2006/2007 VRB20G30KT 2SM TSRA BR BKN005 OVC008CB
FM200700 23008KT 2SM -DZ BR BKN005 OVC009
TEMPO 2007/2012 6SM BR BKN009 OVC015
FM201200 28008KT P6SM BKN008 OVC015
FM201500 28008KT P6SM BKN015
FM201700 29012KT P6SM FEW030
BECMG 2022/2024 25006KT RMK NXT FCST BY 201200Z
No reported NOTAMs for that airfield.



MET'MAP, your aeronautical weather chart ! - Copyright ORBIFLY December 2007 - Disclaimer

ORBIFLY MET'MAP TEAM :

Programming & Development : Alexandra Zaïnal
Concept & Development : Baudouin d'Aumeries
Co-Development & Prog : Marc-Olivier Méhu
Technical & hardware support : Manuel Goepfert

Contact : metmap@orbifly.com




SOURCES & CREDITS :

   NOAA